createdAt,value
2023-01-08T00:01:16.320Z,16.08
2023-01-08T00:03:42.916Z,15.85
2023-01-08T00:06:13.124Z,15.30
2023-01-08T00:08:39.815Z,15.93
2023-01-08T00:11:06.544Z,15.77
2023-01-08T00:13:33.223Z,14.88
2023-01-08T00:16:04.746Z,14.82
2023-01-08T00:18:31.231Z,14.38
2023-01-08T00:20:57.864Z,15.32
2023-01-08T00:23:24.381Z,16.60
2023-01-08T00:25:50.932Z,15.45
2023-01-08T00:28:17.785Z,14.13
2023-01-08T00:30:44.244Z,15.13
2023-01-08T00:33:11.535Z,15.10
2023-01-08T00:35:39.118Z,17.02
2023-01-08T00:38:05.853Z,16.33
2023-01-08T00:40:34.667Z,14.85
2023-01-08T00:43:01.308Z,14.90
2023-01-08T00:45:27.860Z,13.93
2023-01-08T00:47:54.354Z,14.10
2023-01-08T00:50:20.762Z,15.50
2023-01-08T00:52:47.200Z,14.95
2023-01-08T00:55:13.607Z,13.45
2023-01-08T00:57:40.669Z,13.90
2023-01-08T01:00:09.456Z,14.15
2023-01-08T01:02:37.230Z,13.57
2023-01-08T01:05:04.983Z,14.13
2023-01-08T01:07:33.409Z,14.00
2023-01-08T01:10:00.097Z,12.88
2023-01-08T01:12:26.721Z,13.18
2023-01-08T01:14:53.138Z,13.73
2023-01-08T01:17:19.698Z,13.13
2023-01-08T01:19:46.120Z,12.85
2023-01-08T01:22:12.508Z,13.00
2023-01-08T01:24:38.974Z,12.77
2023-01-08T01:27:05.650Z,13.02
2023-01-08T01:29:32.138Z,11.80
2023-01-08T01:31:58.613Z,12.27
2023-01-08T01:34:25.012Z,11.02
2023-01-08T01:36:51.422Z,12.07
2023-01-08T01:39:19.775Z,11.93
2023-01-08T01:41:47.236Z,11.65
2023-01-08T01:44:37.560Z,13.40
2023-01-08T01:47:13.030Z,12.95
2023-01-08T01:49:44.104Z,12.23
2023-01-08T01:52:11.615Z,13.45
2023-01-08T01:54:38.097Z,14.32
2023-01-08T01:57:07.218Z,13.55
2023-01-08T01:59:33.684Z,14.45
2023-01-08T02:02:00.383Z,13.52
2023-01-08T02:04:27.016Z,13.98
2023-01-08T02:07:15.362Z,14.35
2023-01-08T02:09:50.763Z,14.20
2023-01-08T02:12:29.111Z,13.85
2023-01-08T02:15:15.767Z,13.57
2023-01-08T02:17:46.019Z,12.90
2023-01-08T02:20:47.984Z,12.77
2023-01-08T02:23:26.248Z,13.10
2023-01-08T02:26:06.271Z,14.50
2023-01-08T02:28:36.808Z,14.18
2023-01-08T02:31:04.510Z,13.77
2023-01-08T02:33:43.255Z,12.35
2023-01-08T02:36:25.565Z,13.02
2023-01-08T02:39:10.775Z,11.52
2023-01-08T02:41:55.530Z,12.10
2023-01-08T02:44:30.586Z,12.25
2023-01-08T02:46:59.297Z,12.60
2023-01-08T02:49:31.711Z,12.23
2023-01-08T02:52:01.909Z,12.50
2023-01-08T02:54:32.537Z,12.88
2023-01-08T02:57:19.381Z,13.00
2023-01-08T02:59:48.977Z,13.13
2023-01-08T03:02:16.718Z,12.32
2023-01-08T03:04:52.336Z,12.73
2023-01-08T03:07:19.060Z,12.48
2023-01-08T03:09:45.934Z,14.05
2023-01-08T03:12:23.895Z,13.32
2023-01-08T03:15:02.933Z,13.77
2023-01-08T03:17:36.799Z,13.52
2023-01-08T03:20:10.074Z,14.40
2023-01-08T03:22:40.666Z,14.88
2023-01-08T03:25:08.796Z,14.52
2023-01-08T03:27:40.617Z,14.88
2023-01-08T03:30:09.987Z,15.43
2023-01-08T03:32:38.708Z,15.85
2023-01-08T03:35:07.125Z,14.88
2023-01-08T03:37:38.841Z,15.02
2023-01-08T03:40:13.815Z,15.23
2023-01-08T03:42:40.436Z,16.45
2023-01-08T03:45:07.476Z,15.13
2023-01-08T03:47:36.463Z,15.35
2023-01-08T03:50:08.206Z,16.15
2023-01-08T03:52:34.623Z,17.05
2023-01-08T03:55:01.137Z,15.27
2023-01-08T03:57:27.669Z,15.50
2023-01-08T03:59:54.125Z,15.88
2023-01-08T04:02:20.644Z,15.68
2023-01-08T04:04:47.637Z,15.48
2023-01-08T04:07:14.078Z,14.95
2023-01-08T04:09:40.664Z,16.35
2023-01-08T04:12:07.141Z,14.27
2023-01-08T04:14:33.594Z,15.60
2023-01-08T04:17:00.052Z,15.50
2023-01-08T04:19:26.517Z,16.33
2023-01-08T04:21:53.473Z,15.40
2023-01-08T04:24:20.528Z,15.68
2023-01-08T04:26:47.066Z,15.75
2023-01-08T04:29:14.252Z,15.85
2023-01-08T04:31:40.957Z,15.75
2023-01-08T04:34:07.394Z,15.90
2023-01-08T04:36:33.853Z,16.55
2023-01-08T04:39:00.315Z,14.43
2023-01-08T04:41:26.716Z,16.55
2023-01-08T04:43:53.135Z,16.55
2023-01-08T04:46:19.587Z,17.25
2023-01-08T04:48:46.058Z,15.73
2023-01-08T04:51:12.495Z,16.90
2023-01-08T04:53:41.188Z,17.88
2023-01-08T04:56:09.801Z,15.60
2023-01-08T04:58:37.776Z,14.93
2023-01-08T05:01:20.768Z,16.13
2023-01-08T05:03:47.992Z,16.65
2023-01-08T05:06:14.554Z,16.15
2023-01-08T05:08:41.015Z,17.75
2023-01-08T05:11:07.406Z,16.98
2023-01-08T05:13:33.876Z,16.33
2023-01-08T05:16:01.050Z,15.63
2023-01-08T05:18:29.011Z,15.60
2023-01-08T05:20:59.469Z,15.65
2023-01-08T05:23:25.901Z,16.07
2023-01-08T05:25:52.325Z,16.08
2023-01-08T05:28:18.736Z,16.23
2023-01-08T05:30:45.180Z,17.27
2023-01-08T05:33:11.625Z,16.55
2023-01-08T05:35:39.522Z,15.75
2023-01-08T05:38:06.158Z,17.60
2023-01-08T05:40:32.571Z,16.95
2023-01-08T05:43:00.398Z,15.45
2023-01-08T05:45:27.180Z,17.60
2023-01-08T05:47:54.511Z,16.58
2023-01-08T05:50:20.974Z,15.50
2023-01-08T05:52:47.416Z,16.35
2023-01-08T05:55:13.884Z,15.70
2023-01-08T05:57:40.274Z,16.45
2023-01-08T06:00:08.630Z,16.60
2023-01-08T06:02:38.097Z,16.30
2023-01-08T06:05:05.257Z,15.40
2023-01-08T06:07:31.768Z,15.70
2023-01-08T06:09:58.150Z,15.98
2023-01-08T06:12:24.549Z,14.18
2023-01-08T06:14:50.969Z,15.65
2023-01-08T06:17:17.379Z,15.68
2023-01-08T06:19:43.799Z,14.77
2023-01-08T06:22:10.179Z,16.45
2023-01-08T06:24:36.569Z,16.48
2023-01-08T06:27:03.060Z,14.50
2023-01-08T06:29:29.451Z,14.90
2023-01-08T06:31:56.123Z,15.02
2023-01-08T06:34:22.566Z,16.63
2023-01-08T06:36:49.326Z,15.82
2023-01-08T06:39:15.799Z,15.65
2023-01-08T06:41:43.156Z,14.70
2023-01-08T06:44:09.717Z,15.20
2023-01-08T06:46:40.158Z,15.85
2023-01-08T06:49:07.276Z,14.32
2023-01-08T06:51:33.894Z,15.75
2023-01-08T06:54:00.372Z,15.55
2023-01-08T06:56:26.828Z,14.20
2023-01-08T06:58:53.281Z,15.57
2023-01-08T07:01:20.030Z,14.48
2023-01-08T07:03:46.666Z,14.32
2023-01-08T07:06:16.375Z,14.05
2023-01-08T07:08:43.815Z,15.40
2023-01-08T07:11:10.309Z,16.25
2023-01-08T07:13:36.797Z,14.38
2023-01-08T07:16:10.315Z,15.02
2023-01-08T07:18:36.947Z,15.35
2023-01-08T07:21:04.812Z,15.38
2023-01-08T07:23:31.855Z,15.25
2023-01-08T07:26:02.300Z,14.55
2023-01-08T07:28:29.447Z,14.30
2023-01-08T07:30:56.030Z,16.30
2023-01-08T07:33:22.769Z,15.25
2023-01-08T07:35:56.376Z,14.98
2023-01-08T07:38:23.243Z,15.48
2023-01-08T07:40:49.863Z,15.68
2023-01-08T07:43:16.296Z,21.98
2023-01-08T07:45:42.815Z,16.80
2023-01-08T07:48:15.796Z,15.73
2023-01-08T07:50:45.521Z,16.40
2023-01-08T07:53:13.529Z,16.27
2023-01-08T07:55:40.040Z,15.68
2023-01-08T07:58:11.466Z,16.67
2023-01-08T08:03:06.217Z,14.80
2023-01-08T08:05:33.647Z,15.60
2023-01-08T08:08:00.113Z,16.23
2023-01-08T08:10:26.748Z,15.10
2023-01-08T08:12:53.145Z,19.48
2023-01-08T08:15:19.544Z,15.63
2023-01-08T08:17:47.422Z,15.32
2023-01-08T08:20:14.124Z,16.00
2023-01-08T08:22:40.703Z,13.85
2023-01-08T08:25:07.546Z,12.50
2023-01-08T08:27:33.985Z,13.77
2023-01-08T08:30:00.396Z,12.77
2023-01-08T08:32:26.883Z,12.55
2023-01-08T08:34:53.332Z,12.57
2023-01-08T08:37:19.746Z,12.57
2023-01-08T08:39:46.217Z,11.10
2023-01-08T08:42:12.657Z,9.85
2023-01-08T08:44:40.321Z,9.05
2023-01-08T08:47:09.293Z,8.35
2023-01-08T08:49:36.497Z,7.88
2023-01-08T08:52:04.207Z,8.50
2023-01-08T08:54:30.710Z,8.15
2023-01-08T08:56:57.181Z,8.40
2023-01-08T08:59:23.664Z,8.30
2023-01-08T09:01:50.242Z,6.82
2023-01-08T09:04:16.774Z,6.82
2023-01-08T09:06:43.209Z,5.85
2023-01-08T09:09:09.696Z,4.65
2023-01-08T09:11:36.240Z,4.95
2023-01-08T09:14:02.655Z,4.57
2023-01-08T09:16:29.134Z,3.28
2023-01-08T09:18:56.331Z,3.22
2023-01-08T09:21:22.716Z,3.88
2023-01-08T09:23:49.683Z,3.28
2023-01-08T09:26:16.207Z,3.80
2023-01-08T09:28:42.612Z,3.25
2023-01-08T09:31:09.091Z,3.30
2023-01-08T09:33:35.574Z,2.72
2023-01-08T09:36:01.993Z,3.08
2023-01-08T09:38:30.019Z,3.00
2023-01-08T09:40:58.432Z,2.75
2023-01-08T09:43:29.176Z,2.22
2023-01-08T09:45:58.201Z,2.30
2023-01-08T09:48:29.599Z,2.10
2023-01-08T09:50:56.732Z,2.30
2023-01-08T09:53:24.307Z,2.20
2023-01-08T09:56:09.228Z,1.65
2023-01-08T09:58:45.221Z,2.80
2023-01-08T10:01:15.718Z,2.50
2023-01-08T10:03:53.632Z,2.40
2023-01-08T10:06:20.034Z,2.25
2023-01-08T10:11:18.875Z,3.50
2023-01-08T10:13:56.217Z,2.55
2023-01-08T10:16:28.863Z,3.05
2023-01-08T10:18:55.361Z,2.60
2023-01-08T10:21:29.351Z,2.85
2023-01-08T10:23:55.811Z,2.20
2023-01-08T10:26:30.647Z,1.92
2023-01-08T10:29:11.371Z,2.25
2023-01-08T10:31:52.993Z,2.85
2023-01-08T10:34:39.552Z,2.20
2023-01-08T10:37:26.782Z,1.65
2023-01-08T10:39:56.130Z,1.70
2023-01-08T10:42:24.140Z,1.25
2023-01-08T10:45:06.922Z,1.30
2023-01-08T10:47:36.345Z,1.15
2023-01-08T10:50:05.546Z,1.13
2023-01-08T10:52:34.324Z,1.60
2023-01-08T10:55:22.797Z,1.23
2023-01-08T10:57:58.277Z,1.10
2023-01-08T11:00:33.479Z,1.15
2023-01-08T11:03:06.920Z,1.20
2023-01-08T11:05:39.111Z,1.00
2023-01-08T11:08:08.203Z,1.00
2023-01-08T11:10:36.476Z,0.93
2023-01-08T11:13:08.352Z,1.17
2023-01-08T11:15:38.895Z,0.98
2023-01-08T11:18:21.612Z,0.90
2023-01-08T11:20:49.178Z,1.20
2023-01-08T11:23:17.500Z,1.00
2023-01-08T11:25:51.051Z,2.20
2023-01-08T11:28:26.901Z,1.20
2023-01-08T11:31:01.131Z,1.33
2023-01-08T11:33:32.767Z,1.40
2023-01-08T11:36:08.008Z,1.75
2023-01-08T11:38:34.479Z,1.20
2023-01-08T11:41:44.684Z,0.90
2023-01-08T11:44:52.395Z,1.08
2023-01-08T11:47:36.424Z,1.25
2023-01-08T11:50:18.987Z,1.10
2023-01-08T11:53:00.755Z,1.08
2023-01-08T11:55:42.690Z,0.90
2023-01-08T11:58:26.334Z,1.10
2023-01-08T12:00:58.763Z,1.10
2023-01-08T12:03:31.161Z,1.10
2023-01-08T12:06:04.879Z,1.10
2023-01-08T12:08:49.891Z,0.90
2023-01-08T12:11:22.185Z,1.20
2023-01-08T12:14:10.211Z,1.20
2023-01-08T12:16:48.699Z,0.90
2023-01-08T12:19:52.801Z,1.00
2023-01-08T12:22:28.195Z,1.30
2023-01-08T12:25:36.331Z,2.30
2023-01-08T12:28:15.250Z,5.28
2023-01-08T12:30:51.613Z,8.10
2023-01-08T12:33:35.355Z,2.60
2023-01-08T12:36:08.560Z,1.40
2023-01-08T12:38:43.277Z,1.48
2023-01-08T12:41:19.448Z,0.90
2023-01-08T12:43:59.358Z,1.10
2023-01-08T12:46:29.385Z,1.23
2023-01-08T12:48:56.639Z,0.90
2023-01-08T12:51:38.775Z,1.00
2023-01-08T12:54:23.680Z,1.00
2023-01-08T12:57:07.743Z,1.30
2023-01-08T12:59:59.159Z,1.20
2023-01-08T13:02:56.658Z,1.20
2023-01-08T13:05:23.091Z,1.50
2023-01-08T13:07:54.104Z,1.20
2023-01-08T13:10:32.289Z,0.90
2023-01-08T13:13:01.727Z,0.75
2023-01-08T13:15:30.552Z,1.00
2023-01-08T13:18:02.951Z,0.80
2023-01-08T13:20:31.937Z,1.08
2023-01-08T13:23:01.099Z,1.17
2023-01-08T13:25:33.871Z,1.80
2023-01-08T13:28:40.498Z,1.27
2023-01-08T13:31:28.028Z,0.90
2023-01-08T13:33:55.591Z,1.30
2023-01-08T13:36:26.037Z,1.13
2023-01-08T13:39:10.507Z,1.40
2023-01-08T13:41:42.378Z,1.70
2023-01-08T13:44:27.843Z,1.70
2023-01-08T13:46:56.696Z,1.75
2023-01-08T13:49:31.774Z,1.30
2023-01-08T13:51:58.210Z,1.15
2023-01-08T13:54:38.780Z,1.30
2023-01-08T13:57:12.613Z,1.13
2023-01-08T13:59:43.077Z,1.55
2023-01-08T14:02:28.196Z,1.40
2023-01-08T14:04:55.169Z,2.17
2023-01-08T14:07:23.522Z,1.17
2023-01-08T14:09:50.731Z,1.20
2023-01-08T14:12:20.491Z,1.10
2023-01-08T14:14:59.109Z,1.20
2023-01-08T14:17:31.348Z,1.05
2023-01-08T14:19:58.572Z,1.10
2023-01-08T14:22:31.978Z,0.90
2023-01-08T14:25:03.556Z,1.00
2023-01-08T14:27:31.476Z,0.82
2023-01-08T14:29:58.783Z,0.88
2023-01-08T14:32:29.233Z,8.35
2023-01-08T14:34:58.959Z,2.50
2023-01-08T14:37:25.605Z,3.88
2023-01-08T14:39:54.713Z,3.78
2023-01-08T14:42:41.084Z,3.40
2023-01-08T14:45:16.323Z,4.20
2023-01-08T14:47:49.293Z,3.95
2023-01-08T14:50:23.544Z,4.20
2023-01-08T14:52:51.613Z,3.95
2023-01-08T14:55:20.095Z,4.05
2023-01-08T14:57:48.469Z,4.43
2023-01-08T15:00:21.319Z,4.38
2023-01-08T15:02:49.688Z,4.88
2023-01-08T15:05:21.344Z,4.90
2023-01-08T15:07:56.720Z,5.75
2023-01-08T15:10:52.300Z,4.95
2023-01-08T15:13:23.603Z,5.18
2023-01-08T15:15:57.129Z,5.78
2023-01-08T15:18:23.870Z,5.85
2023-01-08T15:20:51.044Z,5.00
2023-01-08T15:23:27.079Z,5.15
2023-01-08T15:25:55.143Z,5.18
2023-01-08T15:28:21.833Z,5.05
2023-01-08T15:30:49.329Z,5.68
2023-01-08T15:33:21.789Z,5.93
2023-01-08T15:35:49.739Z,5.30
2023-01-08T15:38:17.203Z,6.03
2023-01-08T15:40:44.690Z,5.20
2023-01-08T15:43:14.007Z,5.18
2023-01-08T15:45:43.221Z,6.25
2023-01-08T15:48:10.590Z,5.43
2023-01-08T15:50:42.940Z,5.82
2023-01-08T15:53:22.265Z,5.68
2023-01-08T15:55:48.812Z,5.60
2023-01-08T15:58:16.103Z,5.70
2023-01-08T16:00:44.260Z,7.30
2023-01-08T16:03:14.933Z,8.52
2023-01-08T16:05:41.714Z,6.70
2023-01-08T16:08:08.181Z,7.05
2023-01-08T16:10:34.789Z,6.28
2023-01-08T16:13:01.911Z,6.47
2023-01-08T16:15:30.730Z,6.63
2023-01-08T16:17:58.100Z,6.93
2023-01-08T16:20:24.766Z,6.97
2023-01-08T16:22:51.234Z,6.97
2023-01-08T16:25:17.799Z,6.55
2023-01-08T16:27:44.292Z,5.90
2023-01-08T16:30:15.054Z,6.18
2023-01-08T16:32:41.795Z,7.20
2023-01-08T16:35:08.891Z,7.85
2023-01-08T16:37:35.294Z,7.35
2023-01-08T16:40:01.759Z,7.40
2023-01-08T16:42:28.209Z,6.68
2023-01-08T16:44:54.623Z,6.95
2023-01-08T16:47:21.029Z,7.60
2023-01-08T16:49:50.233Z,7.43
2023-01-08T16:52:17.531Z,7.03
2023-01-08T16:54:44.795Z,7.85
2023-01-08T16:57:11.364Z,7.43
2023-01-08T16:59:37.779Z,6.97
2023-01-08T17:02:04.858Z,7.30
2023-01-08T17:04:32.078Z,7.88
2023-01-08T17:06:58.601Z,7.75
2023-01-08T17:09:25.651Z,6.93
2023-01-08T17:11:52.161Z,7.20
2023-01-08T17:14:18.754Z,7.32
2023-01-08T17:16:45.492Z,7.32
2023-01-08T17:19:12.889Z,7.88
2023-01-08T17:21:40.220Z,8.35
2023-01-08T17:24:07.348Z,8.18
2023-01-08T17:26:33.874Z,7.85
2023-01-08T17:29:00.430Z,7.82
2023-01-08T17:31:26.936Z,8.27
2023-01-08T17:33:54.476Z,7.40
2023-01-08T17:36:26.610Z,7.85
2023-01-08T17:38:54.327Z,7.63
2023-01-08T17:41:40.625Z,7.55
2023-01-08T17:44:09.223Z,7.78
2023-01-08T17:46:38.058Z,7.75
2023-01-08T17:49:05.437Z,7.45
2023-01-08T17:51:33.324Z,7.50
2023-01-08T17:54:00.258Z,7.95
2023-01-08T17:56:27.156Z,7.97
2023-01-08T17:58:53.687Z,7.90
2023-01-08T18:01:20.558Z,7.90
2023-01-08T18:03:47.139Z,8.57
2023-01-08T18:06:14.200Z,7.93
2023-01-08T18:08:41.416Z,8.35
2023-01-08T18:11:09.872Z,8.13
2023-01-08T18:13:37.338Z,8.38
2023-01-08T18:16:14.611Z,7.95
2023-01-08T18:18:41.275Z,8.45
2023-01-08T18:21:08.442Z,7.72
2023-01-08T18:23:34.950Z,8.98
2023-01-08T18:26:12.064Z,8.45
2023-01-08T18:28:38.774Z,8.52
2023-01-08T18:31:06.913Z,8.48
2023-01-08T18:33:33.480Z,9.07
2023-01-08T18:36:02.983Z,9.00
2023-01-08T18:38:29.423Z,8.77
2023-01-08T18:40:58.291Z,9.13
2023-01-08T18:43:25.593Z,11.70
2023-01-08T18:45:52.485Z,9.43
2023-01-08T18:48:18.885Z,8.52
2023-01-08T18:50:46.381Z,8.45
2023-01-08T18:53:12.795Z,9.35
2023-01-08T18:55:39.206Z,10.45
2023-01-08T18:58:05.760Z,10.82
2023-01-08T19:00:32.195Z,11.55
2023-01-08T19:02:58.684Z,11.38
2023-01-08T19:05:25.735Z,11.93
2023-01-08T19:07:52.185Z,14.35
2023-01-08T19:10:18.795Z,13.45
2023-01-08T19:12:45.551Z,14.50
2023-01-08T19:15:12.205Z,13.60
2023-01-08T19:17:39.067Z,16.50
2023-01-08T19:20:06.070Z,15.77
2023-01-08T19:22:32.863Z,16.20
2023-01-08T19:24:59.511Z,13.35
2023-01-08T19:27:26.554Z,11.68
2023-01-08T19:29:53.124Z,12.75
2023-01-08T19:32:19.624Z,11.85
2023-01-08T19:34:46.993Z,12.55
2023-01-08T19:37:14.836Z,12.05
2023-01-08T19:39:41.385Z,12.18
2023-01-08T19:42:29.099Z,11.90
2023-01-08T19:44:56.255Z,12.55
2023-01-08T19:47:23.034Z,14.43
2023-01-08T19:49:49.473Z,15.10
2023-01-08T19:52:16.651Z,12.98
2023-01-08T19:54:43.476Z,11.82
2023-01-08T19:57:10.012Z,11.70
2023-01-08T19:59:36.439Z,11.20
2023-01-08T20:02:03.138Z,11.93
2023-01-08T20:04:30.946Z,11.95
2023-01-08T20:06:58.191Z,12.13
2023-01-08T20:09:24.658Z,11.98
2023-01-08T20:11:51.095Z,12.00
2023-01-08T20:14:19.857Z,13.60
2023-01-08T20:16:47.233Z,13.25
2023-01-08T20:19:13.637Z,13.35
2023-01-08T20:21:40.490Z,12.63
2023-01-08T20:24:11.064Z,13.73
2023-01-08T20:26:38.414Z,13.50
2023-01-08T20:29:05.780Z,14.43
2023-01-08T20:31:34.417Z,13.48
2023-01-08T20:34:04.181Z,14.38
2023-01-08T20:36:33.286Z,13.75
2023-01-08T20:39:05.852Z,15.25
2023-01-08T20:41:32.338Z,15.68
2023-01-08T20:43:58.820Z,16.73
2023-01-08T20:46:28.277Z,18.52
2023-01-08T20:48:59.817Z,17.00
2023-01-08T20:51:26.293Z,16.92
2023-01-08T20:53:52.736Z,17.05
2023-01-08T20:56:19.260Z,17.45
2023-01-08T20:58:47.451Z,19.60
2023-01-08T21:01:20.775Z,20.70
2023-01-08T21:03:49.162Z,20.10
2023-01-08T21:06:18.485Z,20.80
2023-01-08T21:08:46.920Z,24.25
2023-01-08T21:11:14.265Z,28.80
2023-01-08T21:13:41.576Z,20.38
2023-01-08T21:16:11.777Z,19.17
2023-01-08T21:18:40.503Z,22.27
2023-01-08T21:21:08.153Z,20.45
2023-01-08T21:23:34.652Z,19.17
2023-01-08T21:26:07.308Z,17.77
2023-01-08T21:28:34.345Z,25.02
2023-01-08T21:31:21.374Z,31.48
2023-01-08T21:33:49.128Z,24.92
2023-01-08T21:36:18.493Z,16.33
2023-01-08T21:38:45.621Z,14.98
2023-01-08T21:41:34.061Z,15.88
2023-01-08T21:44:19.639Z,15.95
2023-01-08T21:46:46.679Z,15.30
2023-01-08T21:49:13.213Z,15.02
2023-01-08T21:51:58.511Z,14.93
2023-01-08T21:54:25.069Z,15.75
2023-01-08T21:56:51.545Z,17.00
2023-01-08T21:59:18.028Z,16.80
2023-01-08T22:01:45.626Z,16.50
2023-01-08T22:04:12.315Z,16.02
2023-01-08T22:06:38.832Z,14.85
2023-01-08T22:09:05.259Z,18.13
2023-01-08T22:11:31.655Z,17.45
2023-01-08T22:13:58.811Z,17.58
2023-01-08T22:16:25.527Z,16.98
2023-01-08T22:18:52.157Z,16.60
2023-01-08T22:21:18.858Z,15.70
2023-01-08T22:23:45.355Z,16.13
2023-01-08T22:26:13.607Z,15.70
2023-01-08T22:28:40.309Z,16.27
2023-01-08T22:31:11.321Z,15.93
2023-01-08T22:33:39.499Z,15.82
2023-01-08T22:36:08.905Z,17.38
2023-01-08T22:38:35.815Z,16.83
2023-01-08T22:41:02.881Z,20.25
2023-01-08T22:43:29.324Z,18.83
2023-01-08T22:45:59.726Z,17.13
2023-01-08T22:48:26.938Z,22.57
2023-01-08T22:50:53.949Z,17.88
2023-01-08T22:53:20.500Z,18.77
2023-01-08T22:55:47.827Z,22.80
2023-01-08T22:58:15.781Z,22.92
2023-01-08T23:00:45.389Z,22.50
2023-01-08T23:03:13.128Z,22.10
2023-01-08T23:05:39.847Z,20.17
2023-01-08T23:08:07.636Z,17.55
2023-01-08T23:10:34.387Z,19.08
2023-01-08T23:13:00.778Z,17.85
2023-01-08T23:15:27.251Z,19.25
2023-01-08T23:17:53.657Z,18.23
2023-01-08T23:20:20.677Z,16.33
2023-01-08T23:22:48.509Z,16.60
2023-01-08T23:25:15.920Z,31.25
2023-01-08T23:27:44.080Z,18.00
2023-01-08T23:30:11.214Z,20.90
2023-01-08T23:32:37.612Z,22.42
2023-01-08T23:35:04.338Z,17.00
2023-01-08T23:37:33.778Z,16.40
2023-01-08T23:40:00.192Z,15.95
2023-01-08T23:42:28.726Z,16.02
2023-01-08T23:44:55.150Z,17.48
2023-01-08T23:47:21.560Z,16.80
2023-01-08T23:49:47.973Z,17.25
2023-01-08T23:52:17.484Z,17.20
2023-01-08T23:54:43.905Z,17.90
2023-01-08T23:57:10.355Z,18.17
2023-01-08T23:59:36.810Z,17.58
